sensor_id;sensor_type;location;lat;lon;timestamp;temperature;humidity
25512;DHT22;13414;44.534;18.700;2022-12-08T00:02:26;6.90;99.90
25512;DHT22;13414;44.534;18.700;2022-12-08T00:04:53;6.80;99.90
25512;DHT22;13414;44.534;18.700;2022-12-08T00:07:38;6.90;99.90
25512;DHT22;13414;44.534;18.700;2022-12-08T00:10:23;6.90;99.90
25512;DHT22;13414;44.534;18.700;2022-12-08T00:12:53;6.80;99.90
25512;DHT22;13414;44.534;18.700;2022-12-08T00:15:20;6.80;99.90
25512;DHT22;13414;44.534;18.700;2022-12-08T00:17:47;6.80;99.90
25512;DHT22;13414;44.534;18.700;2022-12-08T00:20:15;6.80;99.90
25512;DHT22;13414;44.534;18.700;2022-12-08T00:22:43;6.80;99.90
25512;DHT22;13414;44.534;18.700;2022-12-08T00:25:10;6.90;99.90
25512;DHT22;13414;44.534;18.700;2022-12-08T00:27:39;6.90;99.90
25512;DHT22;13414;44.534;18.700;2022-12-08T00:30:09;6.90;99.90
25512;DHT22;13414;44.534;18.700;2022-12-08T00:32:36;6.90;99.90
25512;DHT22;13414;44.534;18.700;2022-12-08T00:35:05;6.80;99.90
25512;DHT22;13414;44.534;18.700;2022-12-08T00:37:32;6.80;99.90
25512;DHT22;13414;44.534;18.700;2022-12-08T00:39:59;6.70;99.90
25512;DHT22;13414;44.534;18.700;2022-12-08T00:42:27;6.70;99.90
25512;DHT22;13414;44.534;18.700;2022-12-08T00:44:54;6.70;99.90
25512;DHT22;13414;44.534;18.700;2022-12-08T00:47:23;6.80;99.90
25512;DHT22;13414;44.534;18.700;2022-12-08T00:49:50;6.70;99.90
25512;DHT22;13414;44.534;18.700;2022-12-08T00:52:18;6.80;99.90
25512;DHT22;13414;44.534;18.700;2022-12-08T00:54:47;6.80;99.90
25512;DHT22;13414;44.534;18.700;2022-12-08T00:57:14;6.90;99.90
25512;DHT22;13414;44.534;18.700;2022-12-08T00:59:41;7.00;99.90
25512;DHT22;13414;44.534;18.700;2022-12-08T01:02:16;7.00;99.90
25512;DHT22;13414;44.534;18.700;2022-12-08T01:04:45;7.10;99.90
25512;DHT22;13414;44.534;18.700;2022-12-08T01:07:13;7.10;99.90
25512;DHT22;13414;44.534;18.700;2022-12-08T01:09:40;7.20;99.90
25512;DHT22;13414;44.534;18.700;2022-12-08T01:12:08;7.20;99.90
25512;DHT22;13414;44.534;18.700;2022-12-08T01:14:37;7.20;99.90
25512;DHT22;13414;44.534;18.700;2022-12-08T01:17:06;7.10;99.90
25512;DHT22;13414;44.534;18.700;2022-12-08T01:19:33;7.10;99.90
25512;DHT22;13414;44.534;18.700;2022-12-08T01:22:02;7.00;99.90
25512;DHT22;13414;44.534;18.700;2022-12-08T01:24:29;7.00;99.90
25512;DHT22;13414;44.534;18.700;2022-12-08T01:26:56;7.00;99.90
25512;DHT22;13414;44.534;18.700;2022-12-08T01:29:25;6.90;99.90
25512;DHT22;13414;44.534;18.700;2022-12-08T01:31:52;6.80;99.90
25512;DHT22;13414;44.534;18.700;2022-12-08T01:34:19;6.80;99.90
25512;DHT22;13414;44.534;18.700;2022-12-08T01:36:47;6.80;99.90
25512;DHT22;13414;44.534;18.700;2022-12-08T01:39:17;6.80;99.90
25512;DHT22;13414;44.534;18.700;2022-12-08T01:41:45;6.80;99.90
25512;DHT22;13414;44.534;18.700;2022-12-08T01:44:54;7.00;99.90
25512;DHT22;13414;44.534;18.700;2022-12-08T01:47:24;7.00;99.90
25512;DHT22;13414;44.534;18.700;2022-12-08T01:49:52;6.90;99.90
25512;DHT22;13414;44.534;18.700;2022-12-08T01:52:23;6.90;99.90
25512;DHT22;13414;44.534;18.700;2022-12-08T01:54:56;7.00;99.90
25512;DHT22;13414;44.534;18.700;2022-12-08T01:57:27;7.00;99.90
25512;DHT22;13414;44.534;18.700;2022-12-08T01:59:58;7.00;99.90
25512;DHT22;13414;44.534;18.700;2022-12-08T02:02:31;7.00;99.90
25512;DHT22;13414;44.534;18.700;2022-12-08T02:05:01;7.00;99.90
25512;DHT22;13414;44.534;18.700;2022-12-08T02:07:29;7.10;99.90
25512;DHT22;13414;44.534;18.700;2022-12-08T02:09:59;7.10;99.90
25512;DHT22;13414;44.534;18.700;2022-12-08T02:12:26;7.10;99.90
25512;DHT22;13414;44.534;18.700;2022-12-08T02:14:54;7.20;99.90
25512;DHT22;13414;44.534;18.700;2022-12-08T02:17:33;7.30;99.90
25512;DHT22;13414;44.534;18.700;2022-12-08T02:20:30;7.30;99.90
25512;DHT22;13414;44.534;18.700;2022-12-08T02:23:07;7.20;99.90
25512;DHT22;13414;44.534;18.700;2022-12-08T02:25:49;7.20;99.90
25512;DHT22;13414;44.534;18.700;2022-12-08T02:28:40;7.20;99.90
25512;DHT22;13414;44.534;18.700;2022-12-08T02:31:21;7.20;99.90
25512;DHT22;13414;44.534;18.700;2022-12-08T02:34:03;7.20;99.90
25512;DHT22;13414;44.534;18.700;2022-12-08T02:36:38;7.20;99.90
25512;DHT22;13414;44.534;18.700;2022-12-08T02:39:15;7.10;99.90
25512;DHT22;13414;44.534;18.700;2022-12-08T02:41:50;7.00;99.90
25512;DHT22;13414;44.534;18.700;2022-12-08T02:44:26;7.00;99.90
25512;DHT22;13414;44.534;18.700;2022-12-08T02:46:57;7.10;99.90
25512;DHT22;13414;44.534;18.700;2022-12-08T02:49:30;7.20;99.90
25512;DHT22;13414;44.534;18.700;2022-12-08T02:52:40;7.20;99.90
25512;DHT22;13414;44.534;18.700;2022-12-08T02:55:16;7.20;99.90
25512;DHT22;13414;44.534;18.700;2022-12-08T02:58:00;7.30;99.90
25512;DHT22;13414;44.534;18.700;2022-12-08T03:00:37;7.20;99.90
25512;DHT22;13414;44.534;18.700;2022-12-08T03:03:13;7.10;99.90
25512;DHT22;13414;44.534;18.700;2022-12-08T03:05:58;7.10;99.90
25512;DHT22;13414;44.534;18.700;2022-12-08T03:08:32;7.10;99.90
25512;DHT22;13414;44.534;18.700;2022-12-08T03:11:03;7.10;99.90
25512;DHT22;13414;44.534;18.700;2022-12-08T03:13:38;7.10;99.90
25512;DHT22;13414;44.534;18.700;2022-12-08T03:16:08;7.10;99.90
25512;DHT22;13414;44.534;18.700;2022-12-08T03:18:41;7.10;99.90
25512;DHT22;13414;44.534;18.700;2022-12-08T03:21:14;7.00;99.90
25512;DHT22;13414;44.534;18.700;2022-12-08T03:23:45;7.00;99.90
25512;DHT22;13414;44.534;18.700;2022-12-08T03:26:17;7.00;99.90
25512;DHT22;13414;44.534;18.700;2022-12-08T03:28:46;7.00;99.90
25512;DHT22;13414;44.534;18.700;2022-12-08T03:31:14;6.90;99.90
25512;DHT22;13414;44.534;18.700;2022-12-08T03:33:44;6.90;99.90
25512;DHT22;13414;44.534;18.700;2022-12-08T03:36:17;6.90;99.90
25512;DHT22;13414;44.534;18.700;2022-12-08T03:38:45;6.80;99.90
25512;DHT22;13414;44.534;18.700;2022-12-08T03:41:13;6.80;99.90
25512;DHT22;13414;44.534;18.700;2022-12-08T03:43:52;6.80;99.90
25512;DHT22;13414;44.534;18.700;2022-12-08T03:46:21;6.90;99.90
25512;DHT22;13414;44.534;18.700;2022-12-08T03:48:49;6.90;99.90
25512;DHT22;13414;44.534;18.700;2022-12-08T03:51:18;6.90;99.90
25512;DHT22;13414;44.534;18.700;2022-12-08T03:53:46;6.90;99.90
25512;DHT22;13414;44.534;18.700;2022-12-08T03:56:16;6.80;99.90
25512;DHT22;13414;44.534;18.700;2022-12-08T03:58:47;6.90;99.90
25512;DHT22;13414;44.534;18.700;2022-12-08T04:01:15;6.90;99.90
25512;DHT22;13414;44.534;18.700;2022-12-08T04:03:42;7.00;99.90
25512;DHT22;13414;44.534;18.700;2022-12-08T04:06:35;7.00;99.90
25512;DHT22;13414;44.534;18.700;2022-12-08T04:09:02;7.10;99.90
25512;DHT22;13414;44.534;18.700;2022-12-08T04:11:30;7.10;99.90
25512;DHT22;13414;44.534;18.700;2022-12-08T04:14:10;7.20;99.90
25512;DHT22;13414;44.534;18.700;2022-12-08T04:16:37;7.10;99.90
25512;DHT22;13414;44.534;18.700;2022-12-08T04:19:05;7.10;99.90
25512;DHT22;13414;44.534;18.700;2022-12-08T04:21:35;7.20;99.90
25512;DHT22;13414;44.534;18.700;2022-12-08T04:24:02;7.20;99.90
25512;DHT22;13414;44.534;18.700;2022-12-08T04:26:30;7.20;99.90
25512;DHT22;13414;44.534;18.700;2022-12-08T04:28:57;7.10;99.90
25512;DHT22;13414;44.534;18.700;2022-12-08T04:31:24;7.00;99.90
25512;DHT22;13414;44.534;18.700;2022-12-08T04:33:52;7.10;99.90
25512;DHT22;13414;44.534;18.700;2022-12-08T04:36:19;7.10;99.90
25512;DHT22;13414;44.534;18.700;2022-12-08T04:38:48;7.10;99.90
25512;DHT22;13414;44.534;18.700;2022-12-08T04:41:15;7.10;99.90
25512;DHT22;13414;44.534;18.700;2022-12-08T04:43:43;7.10;99.90
25512;DHT22;13414;44.534;18.700;2022-12-08T04:46:10;7.10;99.90
25512;DHT22;13414;44.534;18.700;2022-12-08T04:48:39;7.10;99.90
25512;DHT22;13414;44.534;18.700;2022-12-08T04:51:06;7.10;99.90
25512;DHT22;13414;44.534;18.700;2022-12-08T04:53:38;7.10;99.90
25512;DHT22;13414;44.534;18.700;2022-12-08T04:56:11;7.10;99.90
25512;DHT22;13414;44.534;18.700;2022-12-08T04:58:40;7.00;99.90
25512;DHT22;13414;44.534;18.700;2022-12-08T05:01:08;7.00;99.90
25512;DHT22;13414;44.534;18.700;2022-12-08T05:03:36;6.90;99.90
25512;DHT22;13414;44.534;18.700;2022-12-08T05:06:04;6.80;99.90
25512;DHT22;13414;44.534;18.700;2022-12-08T05:08:32;6.80;99.90
25512;DHT22;13414;44.534;18.700;2022-12-08T05:11:04;6.70;99.90
25512;DHT22;13414;44.534;18.700;2022-12-08T05:13:33;6.70;99.90
25512;DHT22;13414;44.534;18.700;2022-12-08T05:16:06;6.80;99.90
25512;DHT22;13414;44.534;18.700;2022-12-08T05:18:35;6.80;99.90
25512;DHT22;13414;44.534;18.700;2022-12-08T05:21:04;6.90;99.90
25512;DHT22;13414;44.534;18.700;2022-12-08T05:23:32;6.90;99.90
25512;DHT22;13414;44.534;18.700;2022-12-08T05:25:59;7.00;99.90
25512;DHT22;13414;44.534;18.700;2022-12-08T05:28:28;7.00;99.90
25512;DHT22;13414;44.534;18.700;2022-12-08T05:30:59;7.10;99.90
25512;DHT22;13414;44.534;18.700;2022-12-08T05:33:27;7.10;99.90
25512;DHT22;13414;44.534;18.700;2022-12-08T05:35:57;7.10;99.90
25512;DHT22;13414;44.534;18.700;2022-12-08T05:38:24;7.10;99.90
25512;DHT22;13414;44.534;18.700;2022-12-08T05:40:54;7.10;99.90
25512;DHT22;13414;44.534;18.700;2022-12-08T05:43:22;7.10;99.90
25512;DHT22;13414;44.534;18.700;2022-12-08T05:45:49;7.10;99.90
25512;DHT22;13414;44.534;18.700;2022-12-08T05:48:28;7.10;99.90
25512;DHT22;13414;44.534;18.700;2022-12-08T05:50:55;7.00;99.90
25512;DHT22;13414;44.534;18.700;2022-12-08T05:53:24;7.10;99.90
25512;DHT22;13414;44.534;18.700;2022-12-08T05:55:52;7.10;99.90
25512;DHT22;13414;44.534;18.700;2022-12-08T05:58:20;7.20;99.90
25512;DHT22;13414;44.534;18.700;2022-12-08T06:00:50;7.30;99.90
25512;DHT22;13414;44.534;18.700;2022-12-08T06:03:18;7.30;99.90
25512;DHT22;13414;44.534;18.700;2022-12-08T06:05:48;7.30;99.90
25512;DHT22;13414;44.534;18.700;2022-12-08T06:08:16;7.30;99.90
25512;DHT22;13414;44.534;18.700;2022-12-08T06:10:45;7.30;99.90
25512;DHT22;13414;44.534;18.700;2022-12-08T06:13:14;7.30;99.90
25512;DHT22;13414;44.534;18.700;2022-12-08T06:15:42;7.20;99.90
25512;DHT22;13414;44.534;18.700;2022-12-08T06:18:11;7.20;99.90
25512;DHT22;13414;44.534;18.700;2022-12-08T06:20:39;7.10;99.90
25512;DHT22;13414;44.534;18.700;2022-12-08T06:23:07;7.20;99.90
25512;DHT22;13414;44.534;18.700;2022-12-08T06:25:35;7.20;99.90
25512;DHT22;13414;44.534;18.700;2022-12-08T06:28:04;7.10;99.90
25512;DHT22;13414;44.534;18.700;2022-12-08T06:30:31;7.20;99.90
25512;DHT22;13414;44.534;18.700;2022-12-08T06:32:59;7.20;99.90
25512;DHT22;13414;44.534;18.700;2022-12-08T06:35:26;7.20;99.90
25512;DHT22;13414;44.534;18.700;2022-12-08T06:37:54;7.10;99.90
25512;DHT22;13414;44.534;18.700;2022-12-08T06:40:23;7.10;99.90
25512;DHT22;13414;44.534;18.700;2022-12-08T06:42:50;7.20;99.90
25512;DHT22;13414;44.534;18.700;2022-12-08T06:45:19;7.30;99.90
25512;DHT22;13414;44.534;18.700;2022-12-08T06:47:46;7.30;99.90
25512;DHT22;13414;44.534;18.700;2022-12-08T06:50:13;7.30;99.90
25512;DHT22;13414;44.534;18.700;2022-12-08T06:52:41;7.30;99.90
25512;DHT22;13414;44.534;18.700;2022-12-08T06:55:09;7.40;99.90
25512;DHT22;13414;44.534;18.700;2022-12-08T06:57:40;7.40;99.90
25512;DHT22;13414;44.534;18.700;2022-12-08T07:00:08;7.50;99.90
25512;DHT22;13414;44.534;18.700;2022-12-08T07:02:36;7.60;99.90
25512;DHT22;13414;44.534;18.700;2022-12-08T07:05:05;7.50;99.90
25512;DHT22;13414;44.534;18.700;2022-12-08T07:07:32;7.50;99.90
25512;DHT22;13414;44.534;18.700;2022-12-08T07:10:03;7.40;99.90
25512;DHT22;13414;44.534;18.700;2022-12-08T07:12:30;7.40;99.90
25512;DHT22;13414;44.534;18.700;2022-12-08T07:15:00;7.40;99.90
25512;DHT22;13414;44.534;18.700;2022-12-08T07:17:27;7.50;99.90
25512;DHT22;13414;44.534;18.700;2022-12-08T07:19:55;7.50;99.90
25512;DHT22;13414;44.534;18.700;2022-12-08T07:22:22;7.60;99.90
25512;DHT22;13414;44.534;18.700;2022-12-08T07:24:50;7.60;99.90
25512;DHT22;13414;44.534;18.700;2022-12-08T07:27:20;7.60;99.90
25512;DHT22;13414;44.534;18.700;2022-12-08T07:29:48;7.60;99.90
25512;DHT22;13414;44.534;18.700;2022-12-08T07:32:18;7.70;99.90
25512;DHT22;13414;44.534;18.700;2022-12-08T07:34:46;7.80;99.90
25512;DHT22;13414;44.534;18.700;2022-12-08T07:37:14;7.80;99.90
25512;DHT22;13414;44.534;18.700;2022-12-08T07:39:50;7.90;99.90
25512;DHT22;13414;44.534;18.700;2022-12-08T07:42:17;8.00;99.90
25512;DHT22;13414;44.534;18.700;2022-12-08T07:44:47;8.00;99.90
25512;DHT22;13414;44.534;18.700;2022-12-08T07:47:17;8.10;99.90
25512;DHT22;13414;44.534;18.700;2022-12-08T07:49:45;8.20;99.90
25512;DHT22;13414;44.534;18.700;2022-12-08T07:52:13;8.40;99.90
25512;DHT22;13414;44.534;18.700;2022-12-08T07:54:40;8.50;99.90
25512;DHT22;13414;44.534;18.700;2022-12-08T08:00:22;8.80;99.90
25512;DHT22;13414;44.534;18.700;2022-12-08T08:02:51;8.90;99.90
25512;DHT22;13414;44.534;18.700;2022-12-08T08:05:18;9.00;99.90
25512;DHT22;13414;44.534;18.700;2022-12-08T08:07:46;8.90;99.90
25512;DHT22;13414;44.534;18.700;2022-12-08T08:10:13;9.00;99.90
25512;DHT22;13414;44.534;18.700;2022-12-08T08:12:40;9.00;99.90
25512;DHT22;13414;44.534;18.700;2022-12-08T08:15:10;8.90;99.90
25512;DHT22;13414;44.534;18.700;2022-12-08T08:17:38;8.80;99.90
25512;DHT22;13414;44.534;18.700;2022-12-08T08:20:07;8.70;99.90
25512;DHT22;13414;44.534;18.700;2022-12-08T08:22:35;8.50;99.90
25512;DHT22;13414;44.534;18.700;2022-12-08T08:25:03;8.70;99.90
25512;DHT22;13414;44.534;18.700;2022-12-08T08:27:30;8.80;99.90
25512;DHT22;13414;44.534;18.700;2022-12-08T08:29:58;8.90;99.90
25512;DHT22;13414;44.534;18.700;2022-12-08T08:32:25;9.00;99.90
25512;DHT22;13414;44.534;18.700;2022-12-08T08:34:53;9.00;99.90
25512;DHT22;13414;44.534;18.700;2022-12-08T08:37:21;8.90;99.90
25512;DHT22;13414;44.534;18.700;2022-12-08T08:39:49;8.90;99.90
25512;DHT22;13414;44.534;18.700;2022-12-08T08:42:16;8.90;99.90
25512;DHT22;13414;44.534;18.700;2022-12-08T08:44:44;8.90;99.90
25512;DHT22;13414;44.534;18.700;2022-12-08T08:47:11;9.00;99.90
25512;DHT22;13414;44.534;18.700;2022-12-08T08:49:38;9.00;99.90
25512;DHT22;13414;44.534;18.700;2022-12-08T08:52:06;9.10;99.90
25512;DHT22;13414;44.534;18.700;2022-12-08T08:54:35;9.10;99.90
25512;DHT22;13414;44.534;18.700;2022-12-08T08:57:02;9.20;99.90
25512;DHT22;13414;44.534;18.700;2022-12-08T08:59:30;9.10;99.90
25512;DHT22;13414;44.534;18.700;2022-12-08T09:01:57;9.10;99.90
25512;DHT22;13414;44.534;18.700;2022-12-08T09:04:25;9.10;99.90
25512;DHT22;13414;44.534;18.700;2022-12-08T09:06:52;9.00;99.90
25512;DHT22;13414;44.534;18.700;2022-12-08T09:09:19;9.00;99.90
25512;DHT22;13414;44.534;18.700;2022-12-08T09:11:48;9.10;99.90
25512;DHT22;13414;44.534;18.700;2022-12-08T09:14:16;9.20;99.90
25512;DHT22;13414;44.534;18.700;2022-12-08T09:16:43;9.30;99.90
25512;DHT22;13414;44.534;18.700;2022-12-08T09:19:10;9.40;99.90
25512;DHT22;13414;44.534;18.700;2022-12-08T09:21:38;9.50;99.90
25512;DHT22;13414;44.534;18.700;2022-12-08T09:24:06;9.50;99.90
25512;DHT22;13414;44.534;18.700;2022-12-08T09:26:35;9.40;99.90
25512;DHT22;13414;44.534;18.700;2022-12-08T09:29:04;9.40;99.90
25512;DHT22;13414;44.534;18.700;2022-12-08T09:31:31;9.50;99.90
25512;DHT22;13414;44.534;18.700;2022-12-08T09:33:58;9.40;99.90
25512;DHT22;13414;44.534;18.700;2022-12-08T09:36:26;9.40;99.90
25512;DHT22;13414;44.534;18.700;2022-12-08T09:38:54;9.40;99.90
25512;DHT22;13414;44.534;18.700;2022-12-08T09:41:29;9.40;99.90
25512;DHT22;13414;44.534;18.700;2022-12-08T09:44:06;9.40;99.90
25512;DHT22;13414;44.534;18.700;2022-12-08T09:46:35;9.40;99.90
25512;DHT22;13414;44.534;18.700;2022-12-08T09:49:04;9.40;99.90
25512;DHT22;13414;44.534;18.700;2022-12-08T09:51:37;9.40;99.90
25512;DHT22;13414;44.534;18.700;2022-12-08T09:54:09;9.30;99.90
25512;DHT22;13414;44.534;18.700;2022-12-08T09:56:41;9.20;99.90
25512;DHT22;13414;44.534;18.700;2022-12-08T09:59:20;9.20;99.90
25512;DHT22;13414;44.534;18.700;2022-12-08T10:01:49;9.20;99.90
25512;DHT22;13414;44.534;18.700;2022-12-08T10:04:22;9.20;99.90
25512;DHT22;13414;44.534;18.700;2022-12-08T10:06:59;9.20;99.90
25512;DHT22;13414;44.534;18.700;2022-12-08T10:09:36;9.10;99.90
25512;DHT22;13414;44.534;18.700;2022-12-08T10:12:12;9.10;99.90
25512;DHT22;13414;44.534;18.700;2022-12-08T10:14:44;9.10;99.90
25512;DHT22;13414;44.534;18.700;2022-12-08T10:17:16;9.10;99.90
25512;DHT22;13414;44.534;18.700;2022-12-08T10:19:47;9.00;99.90
25512;DHT22;13414;44.534;18.700;2022-12-08T10:22:19;8.90;99.90
25512;DHT22;13414;44.534;18.700;2022-12-08T10:24:54;8.90;99.90
25512;DHT22;13414;44.534;18.700;2022-12-08T10:27:24;8.90;99.90
25512;DHT22;13414;44.534;18.700;2022-12-08T10:29:53;8.90;99.90
25512;DHT22;13414;44.534;18.700;2022-12-08T10:32:22;8.80;99.90
25512;DHT22;13414;44.534;18.700;2022-12-08T10:35:02;8.80;99.90
25512;DHT22;13414;44.534;18.700;2022-12-08T10:37:30;8.70;99.90
25512;DHT22;13414;44.534;18.700;2022-12-08T10:40:03;8.60;99.90
25512;DHT22;13414;44.534;18.700;2022-12-08T10:42:35;8.50;99.90
25512;DHT22;13414;44.534;18.700;2022-12-08T10:45:19;8.50;99.90
25512;DHT22;13414;44.534;18.700;2022-12-08T10:47:56;8.40;99.90
25512;DHT22;13414;44.534;18.700;2022-12-08T10:50:29;8.50;99.90
25512;DHT22;13414;44.534;18.700;2022-12-08T10:52:58;8.40;99.90
25512;DHT22;13414;44.534;18.700;2022-12-08T10:55:25;8.30;99.90
25512;DHT22;13414;44.534;18.700;2022-12-08T10:57:53;8.30;99.90
25512;DHT22;13414;44.534;18.700;2022-12-08T11:00:25;8.20;99.90
25512;DHT22;13414;44.534;18.700;2022-12-08T11:02:55;8.20;99.90
25512;DHT22;13414;44.534;18.700;2022-12-08T11:05:27;8.20;99.90
25512;DHT22;13414;44.534;18.700;2022-12-08T11:07:55;8.10;99.90
25512;DHT22;13414;44.534;18.700;2022-12-08T11:10:34;8.20;99.90
25512;DHT22;13414;44.534;18.700;2022-12-08T11:13:04;8.20;99.90
25512;DHT22;13414;44.534;18.700;2022-12-08T11:15:37;8.20;99.90
25512;DHT22;13414;44.534;18.700;2022-12-08T11:18:22;8.10;99.90
25512;DHT22;13414;44.534;18.700;2022-12-08T11:21:06;8.10;99.90
25512;DHT22;13414;44.534;18.700;2022-12-08T11:23:35;8.00;99.90
25512;DHT22;13414;44.534;18.700;2022-12-08T11:26:10;8.00;99.90
25512;DHT22;13414;44.534;18.700;2022-12-08T11:28:39;8.00;99.90
25512;DHT22;13414;44.534;18.700;2022-12-08T11:31:20;8.00;99.90
25512;DHT22;13414;44.534;18.700;2022-12-08T11:33:49;8.10;99.90
25512;DHT22;13414;44.534;18.700;2022-12-08T11:36:20;8.10;99.90
25512;DHT22;13414;44.534;18.700;2022-12-08T11:38:49;8.10;99.90
25512;DHT22;13414;44.534;18.700;2022-12-08T11:41:20;8.10;99.90
25512;DHT22;13414;44.534;18.700;2022-12-08T11:43:53;8.10;99.90
25512;DHT22;13414;44.534;18.700;2022-12-08T11:46:26;8.00;99.90
25512;DHT22;13414;44.534;18.700;2022-12-08T11:49:00;7.90;99.90
25512;DHT22;13414;44.534;18.700;2022-12-08T11:51:31;7.90;99.90
25512;DHT22;13414;44.534;18.700;2022-12-08T11:54:08;8.10;99.90
25512;DHT22;13414;44.534;18.700;2022-12-08T11:56:40;8.10;99.90
25512;DHT22;13414;44.534;18.700;2022-12-08T11:59:17;8.10;99.90
25512;DHT22;13414;44.534;18.700;2022-12-08T12:01:47;8.10;99.90
25512;DHT22;13414;44.534;18.700;2022-12-08T12:04:23;8.10;99.90
25512;DHT22;13414;44.534;18.700;2022-12-08T12:07:36;8.00;99.90
25512;DHT22;13414;44.534;18.700;2022-12-08T12:10:20;8.10;99.90
25512;DHT22;13414;44.534;18.700;2022-12-08T12:12:58;8.10;99.90
25512;DHT22;13414;44.534;18.700;2022-12-08T12:18:46;8.20;99.90
25512;DHT22;13414;44.534;18.700;2022-12-08T12:21:18;8.30;99.90
25512;DHT22;13414;44.534;18.700;2022-12-08T12:23:50;8.30;99.90
25512;DHT22;13414;44.534;18.700;2022-12-08T12:26:21;8.40;99.90
25512;DHT22;13414;44.534;18.700;2022-12-08T12:28:51;8.50;99.90
25512;DHT22;13414;44.534;18.700;2022-12-08T12:31:23;8.50;99.90
25512;DHT22;13414;44.534;18.700;2022-12-08T12:34:02;8.50;99.90
25512;DHT22;13414;44.534;18.700;2022-12-08T12:36:31;8.60;99.90
25512;DHT22;13414;44.534;18.700;2022-12-08T12:39:11;8.70;99.90
25512;DHT22;13414;44.534;18.700;2022-12-08T12:41:43;8.90;99.90
25512;DHT22;13414;44.534;18.700;2022-12-08T12:44:37;9.10;99.90
25512;DHT22;13414;44.534;18.700;2022-12-08T12:47:09;9.30;99.90
25512;DHT22;13414;44.534;18.700;2022-12-08T12:50:06;9.20;99.90
25512;DHT22;13414;44.534;18.700;2022-12-08T12:52:43;9.40;99.90
25512;DHT22;13414;44.534;18.700;2022-12-08T12:55:20;9.50;99.90
25512;DHT22;13414;44.534;18.700;2022-12-08T12:57:51;9.60;99.90
25512;DHT22;13414;44.534;18.700;2022-12-08T13:00:20;9.70;99.90
25512;DHT22;13414;44.534;18.700;2022-12-08T13:02:48;9.70;99.90
25512;DHT22;13414;44.534;18.700;2022-12-08T13:05:19;9.70;99.90
25512;DHT22;13414;44.534;18.700;2022-12-08T13:07:51;9.70;99.90
25512;DHT22;13414;44.534;18.700;2022-12-08T13:10:21;9.70;99.90
25512;DHT22;13414;44.534;18.700;2022-12-08T13:13:14;9.80;99.90
25512;DHT22;13414;44.534;18.700;2022-12-08T13:15:48;9.80;99.90
25512;DHT22;13414;44.534;18.700;2022-12-08T13:18:18;9.70;99.90
25512;DHT22;13414;44.534;18.700;2022-12-08T13:20:50;9.70;99.90
25512;DHT22;13414;44.534;18.700;2022-12-08T13:23:28;9.70;99.90
25512;DHT22;13414;44.534;18.700;2022-12-08T13:26:23;9.70;99.90
25512;DHT22;13414;44.534;18.700;2022-12-08T13:29:12;9.60;99.90
25512;DHT22;13414;44.534;18.700;2022-12-08T13:31:41;9.50;99.90
25512;DHT22;13414;44.534;18.700;2022-12-08T13:34:14;9.30;99.90
25512;DHT22;13414;44.534;18.700;2022-12-08T13:36:54;9.30;99.90
25512;DHT22;13414;44.534;18.700;2022-12-08T13:39:27;9.30;99.90
25512;DHT22;13414;44.534;18.700;2022-12-08T13:42:01;9.30;99.90
25512;DHT22;13414;44.534;18.700;2022-12-08T13:44:36;9.30;99.90
25512;DHT22;13414;44.534;18.700;2022-12-08T13:47:05;9.40;99.90
25512;DHT22;13414;44.534;18.700;2022-12-08T13:49:40;9.50;99.90
25512;DHT22;13414;44.534;18.700;2022-12-08T13:52:16;9.50;99.90
25512;DHT22;13414;44.534;18.700;2022-12-08T13:54:44;9.50;99.90
25512;DHT22;13414;44.534;18.700;2022-12-08T13:57:23;9.40;99.90
25512;DHT22;13414;44.534;18.700;2022-12-08T13:59:52;9.40;99.90
25512;DHT22;13414;44.534;18.700;2022-12-08T14:02:24;9.40;99.90
25512;DHT22;13414;44.534;18.700;2022-12-08T14:04:54;9.40;99.90
25512;DHT22;13414;44.534;18.700;2022-12-08T14:07:23;9.40;99.90
25512;DHT22;13414;44.534;18.700;2022-12-08T14:09:51;9.30;99.90
25512;DHT22;13414;44.534;18.700;2022-12-08T14:12:20;9.30;99.90
25512;DHT22;13414;44.534;18.700;2022-12-08T14:14:55;9.40;99.90
25512;DHT22;13414;44.534;18.700;2022-12-08T14:17:24;9.30;99.90
25512;DHT22;13414;44.534;18.700;2022-12-08T14:19:54;9.30;99.90
25512;DHT22;13414;44.534;18.700;2022-12-08T14:22:31;9.30;99.90
25512;DHT22;13414;44.534;18.700;2022-12-08T14:25:06;9.30;99.90
25512;DHT22;13414;44.534;18.700;2022-12-08T14:27:41;9.30;99.90
25512;DHT22;13414;44.534;18.700;2022-12-08T14:30:18;9.30;99.90
25512;DHT22;13414;44.534;18.700;2022-12-08T14:32:49;9.20;99.90
25512;DHT22;13414;44.534;18.700;2022-12-08T14:35:20;9.20;99.90
25512;DHT22;13414;44.534;18.700;2022-12-08T14:37:53;9.10;99.90
25512;DHT22;13414;44.534;18.700;2022-12-08T14:40:23;9.10;99.90
25512;DHT22;13414;44.534;18.700;2022-12-08T14:43:10;9.10;99.90
25512;DHT22;13414;44.534;18.700;2022-12-08T14:45:49;9.10;99.90
25512;DHT22;13414;44.534;18.700;2022-12-08T14:48:20;9.10;99.90
25512;DHT22;13414;44.534;18.700;2022-12-08T14:50:59;9.00;99.90
25512;DHT22;13414;44.534;18.700;2022-12-08T14:53:36;9.00;99.90
25512;DHT22;13414;44.534;18.700;2022-12-08T14:56:13;9.00;99.90
25512;DHT22;13414;44.534;18.700;2022-12-08T14:58:43;8.90;99.90
25512;DHT22;13414;44.534;18.700;2022-12-08T15:01:13;8.80;99.90
25512;DHT22;13414;44.534;18.700;2022-12-08T15:03:47;8.80;99.90
25512;DHT22;13414;44.534;18.700;2022-12-08T15:06:15;8.70;99.90
25512;DHT22;13414;44.534;18.700;2022-12-08T15:08:53;8.70;99.90
25512;DHT22;13414;44.534;18.700;2022-12-08T15:11:32;8.70;99.90
25512;DHT22;13414;44.534;18.700;2022-12-08T15:14:29;8.70;99.90
25512;DHT22;13414;44.534;18.700;2022-12-08T15:16:58;8.60;99.90
25512;DHT22;13414;44.534;18.700;2022-12-08T15:19:28;8.70;99.90
25512;DHT22;13414;44.534;18.700;2022-12-08T15:21:57;8.70;99.90
25512;DHT22;13414;44.534;18.700;2022-12-08T15:24:31;8.70;99.90
25512;DHT22;13414;44.534;18.700;2022-12-08T15:27:00;8.60;99.90
25512;DHT22;13414;44.534;18.700;2022-12-08T15:29:29;8.60;99.90
25512;DHT22;13414;44.534;18.700;2022-12-08T15:31:59;8.60;99.90
25512;DHT22;13414;44.534;18.700;2022-12-08T15:34:26;8.50;99.90
25512;DHT22;13414;44.534;18.700;2022-12-08T15:36:55;8.50;99.90
25512;DHT22;13414;44.534;18.700;2022-12-08T15:39:31;8.40;99.90
25512;DHT22;13414;44.534;18.700;2022-12-08T15:41:59;8.40;99.90
25512;DHT22;13414;44.534;18.700;2022-12-08T15:44:27;8.30;99.90
25512;DHT22;13414;44.534;18.700;2022-12-08T15:46:57;8.20;99.90
25512;DHT22;13414;44.534;18.700;2022-12-08T15:49:25;8.20;99.90
25512;DHT22;13414;44.534;18.700;2022-12-08T15:51:53;8.20;99.90
25512;DHT22;13414;44.534;18.700;2022-12-08T15:54:20;8.10;99.90
25512;DHT22;13414;44.534;18.700;2022-12-08T15:56:51;8.20;99.90
25512;DHT22;13414;44.534;18.700;2022-12-08T15:59:21;8.20;99.90
25512;DHT22;13414;44.534;18.700;2022-12-08T16:01:50;8.20;99.90
25512;DHT22;13414;44.534;18.700;2022-12-08T16:04:20;8.20;99.90